MWI034 FLKK-FVRG
Flight info
| Callsign | MWI034 |
|---|---|
| Flight time | N/A |
| Altitude | 35000 |
| Route | GADBA UM652 VHA |
| Aircraft | B737/M-SABDE2E3FGHIRWXY/LB2 |
Departure
| Time | 2026-04-22 10:31 |
|---|---|
| Airport | Kenneth Kaunda International Airport (FLKK) |
Arrival
| Time | N/A |
|---|---|
| Airport | Robert Gabriel Mugabe International Airport (FVRG) |
| Time | Latitude | Longitude | Altitude | Speed | Heading |
|---|---|---|---|---|---|
| 2026-04-22 09:56 | -15.32662 | 28.44736 | 3773 ft | 0 kts | 168° |
| 2026-04-22 10:22 | -15.32664 | 28.44737 | 3773 ft | 1 kts | 169° |
| 2026-04-22 10:23 | -15.32669 | 28.44738 | 3773 ft | 0 kts | 169° |
| 2026-04-22 10:23 | -15.32677 | 28.44738 | 3783 ft | 4 kts | 180° |
| 2026-04-22 10:23 | -15.32708 | 28.44731 | 3773 ft | 3 kts | 199° |
| 2026-04-22 10:23 | -15.32722 | 28.44721 | 3784 ft | 2 kts | 214° |
| 2026-04-22 10:24 | -15.32726 | 28.44718 | 3784 ft | 0 kts | 215° |
| 2026-04-22 10:24 | -15.32735 | 28.44682 | 3773 ft | 8 kts | 276° |
| 2026-04-22 10:24 | -15.32723 | 28.44621 | 3773 ft | 8 kts | 278° |
| 2026-04-22 10:24 | -15.32729 | 28.44576 | 3773 ft | 5 kts | 247° |
| 2026-04-22 10:25 | -15.32744 | 28.44552 | 3781 ft | 6 kts | 233° |
| 2026-04-22 10:25 | -15.32791 | 28.44493 | 3779 ft | 12 kts | 231° |
| 2026-04-22 10:25 | -15.32817 | 28.44441 | 3773 ft | 4 kts | 277° |
| 2026-04-22 10:25 | -15.32814 | 28.44419 | 3775 ft | 2 kts | 278° |
| 2026-04-22 10:26 | -15.32813 | 28.44415 | 3773 ft | 0 kts | 278° |
| 2026-04-22 10:26 | -15.32810 | 28.44390 | 3773 ft | 12 kts | 278° |
| 2026-04-22 10:26 | -15.32796 | 28.44238 | 3773 ft | 27 kts | 272° |
| 2026-04-22 10:26 | -15.32778 | 28.44048 | 3778 ft | 26 kts | 276° |
| 2026-04-22 10:27 | -15.32766 | 28.43871 | 3773 ft | 23 kts | 273° |
| 2026-04-22 10:27 | -15.32749 | 28.43711 | 3773 ft | 21 kts | 277° |
| 2026-04-22 10:27 | -15.32733 | 28.43567 | 3779 ft | 19 kts | 276° |
| 2026-04-22 10:27 | -15.32748 | 28.43440 | 3774 ft | 17 kts | 236° |
| 2026-04-22 10:28 | -15.32776 | 28.43415 | 3773 ft | 0 kts | 188° |
| 2026-04-22 10:28 | -15.32806 | 28.43417 | 3780 ft | 14 kts | 167° |
| 2026-04-22 10:28 | -15.32924 | 28.43481 | 3774 ft | 21 kts | 115° |
| 2026-04-22 10:29 | -15.32935 | 28.43622 | 3776 ft | 19 kts | 94° |
| 2026-04-22 10:29 | -15.32950 | 28.43779 | 3777 ft | 22 kts | 95° |
| 2026-04-22 10:29 | -15.32953 | 28.43817 | 3778 ft | 0 kts | 94° |
| 2026-04-22 10:30 | -15.32955 | 28.43843 | 3774 ft | 11 kts | 94° |
| 2026-04-22 10:30 | -15.32972 | 28.44064 | 3774 ft | 57 kts | 95° |
| 2026-04-22 10:31 | -15.33034 | 28.44752 | 3773 ft | 132 kts | 96° |
| 2026-04-22 10:31 | -15.33121 | 28.45829 | 4246 ft | 154 kts | 92° |
| 2026-04-22 10:31 | -15.33195 | 28.46954 | 5111 ft | 160 kts | 91° |
| 2026-04-22 10:31 | -15.33278 | 28.48171 | 5822 ft | 180 kts | 94° |
| 2026-04-22 10:32 | -15.33410 | 28.49516 | 6579 ft | 197 kts | 94° |
| 2026-04-22 10:32 | -15.33570 | 28.50938 | 7457 ft | 201 kts | 96° |
| 2026-04-22 10:32 | -15.33762 | 28.52347 | 8519 ft | 188 kts | 99° |
| 2026-04-22 10:32 | -15.33897 | 28.53735 | 9286 ft | 205 kts | 94° |
| 2026-04-22 10:33 | -15.34031 | 28.55221 | 9535 ft | 235 kts | 96° |
| 2026-04-22 10:33 | -15.34236 | 28.56988 | 9840 ft | 261 kts | 97° |
| 2026-04-22 10:33 | -15.34521 | 28.58953 | 10251 ft | 287 kts | 106° |
| 2026-04-22 10:33 | -15.35508 | 28.60846 | 10644 ft | 315 kts | 130° |
| 2026-04-22 10:34 | -15.37196 | 28.62358 | 11443 ft | 326 kts | 143° |
| 2026-04-22 10:34 | -15.39082 | 28.63707 | 12394 ft | 330 kts | 145° |
| 2026-04-22 10:34 | -15.40992 | 28.65008 | 13335 ft | 334 kts | 146° |
| 2026-04-22 10:34 | -15.42958 | 28.66341 | 14265 ft | 338 kts | 146° |
| 2026-04-22 10:35 | -15.44898 | 28.67661 | 15421 ft | 332 kts | 146° |
| 2026-04-22 10:35 | -15.46833 | 28.68989 | 16403 ft | 330 kts | 146° |
| 2026-04-22 10:35 | -15.48737 | 28.70313 | 16853 ft | 337 kts | 146° |
| 2026-04-22 10:35 | -15.50708 | 28.71692 | 17372 ft | 345 kts | 146° |
| 2026-04-22 10:36 | -15.52702 | 28.73088 | 18160 ft | 346 kts | 146° |
| 2026-04-22 10:36 | -15.54699 | 28.74491 | 18951 ft | 348 kts | 146° |
| 2026-04-22 10:36 | -15.56716 | 28.75911 | 19651 ft | 352 kts | 146° |
| 2026-04-22 10:36 | -15.58760 | 28.77352 | 20302 ft | 356 kts | 146° |
| 2026-04-22 10:37 | -15.60818 | 28.78805 | 20928 ft | 360 kts | 146° |
| 2026-04-22 10:37 | -15.65009 | 28.81766 | 22133 ft | 368 kts | 146° |
| 2026-04-22 10:37 | -15.67103 | 28.83247 | 22689 ft | 372 kts | 146° |
| 2026-04-22 10:38 | -15.69271 | 28.84780 | 23221 ft | 376 kts | 146° |
| 2026-04-22 10:38 | -15.70697 | 28.85788 | 23561 ft | 378 kts | 146° |
| 2026-04-22 10:38 | -15.74133 | 28.88221 | 24375 ft | 383 kts | 146° |
| 2026-04-22 10:38 | -15.76357 | 28.89795 | 24901 ft | 386 kts | 147° |
| 2026-04-22 10:39 | -15.78583 | 28.91371 | 25430 ft | 390 kts | 147° |
| 2026-04-22 10:39 | -15.80820 | 28.92956 | 25934 ft | 393 kts | 147° |
| 2026-04-22 10:39 | -15.83106 | 28.94575 | 26457 ft | 397 kts | 147° |
| 2026-04-22 10:39 | -15.85425 | 28.96220 | 26665 ft | 411 kts | 147° |
| 2026-04-22 10:40 | -15.87807 | 28.97910 | 27037 ft | 418 kts | 146° |
| 2026-04-22 10:40 | -15.90221 | 28.99623 | 27565 ft | 421 kts | 147° |
| 2026-04-22 10:40 | -15.92621 | 29.01325 | 28103 ft | 424 kts | 147° |
| 2026-04-22 10:40 | -15.95042 | 29.03104 | 28584 ft | 428 kts | 142° |
| 2026-04-22 10:41 | -15.97267 | 29.05194 | 29019 ft | 432 kts | 136° |
| 2026-04-22 10:41 | -15.99412 | 29.07401 | 29457 ft | 436 kts | 135° |
| 2026-04-22 10:41 | -16.01552 | 29.09655 | 29897 ft | 439 kts | 135° |
| 2026-04-22 10:41 | -16.03714 | 29.11943 | 30352 ft | 442 kts | 135° |
| 2026-04-22 10:42 | -16.05861 | 29.14207 | 30919 ft | 441 kts | 135° |
| 2026-04-22 10:42 | -16.08011 | 29.16463 | 31558 ft | 438 kts | 135° |
| 2026-04-22 10:42 | -16.10165 | 29.18713 | 32171 ft | 437 kts | 135° |
| 2026-04-22 10:42 | -16.11591 | 29.20198 | 32538 ft | 437 kts | 135° |
| 2026-04-22 10:43 | -16.14445 | 29.23165 | 33168 ft | 439 kts | 135° |
| 2026-04-22 10:43 | -16.18756 | 29.27640 | 33174 ft | 438 kts | 135° |
| 2026-04-22 10:44 | -16.22377 | 29.31402 | 33175 ft | 440 kts | 135° |
| 2026-04-22 10:44 | -16.26709 | 29.35905 | 33165 ft | 440 kts | 135° |
| 2026-04-22 10:45 | -16.31038 | 29.40409 | 33168 ft | 440 kts | 135° |
| 2026-04-22 10:45 | -16.35371 | 29.44919 | 33157 ft | 440 kts | 135° |
| 2026-04-22 10:46 | -16.38955 | 29.48653 | 33169 ft | 433 kts | 135° |
| 2026-04-22 10:46 | -16.41064 | 29.50851 | 33152 ft | 422 kts | 134° |
| 2026-04-22 10:46 | -16.43118 | 29.52995 | 33180 ft | 419 kts | 135° |
| 2026-04-22 10:47 | -16.47285 | 29.57342 | 33198 ft | 429 kts | 135° |
| 2026-04-22 10:47 | -16.51496 | 29.61735 | 33183 ft | 428 kts | 135° |
| 2026-04-22 10:48 | -16.55695 | 29.66119 | 33185 ft | 426 kts | 135° |
| 2026-04-22 10:48 | -16.59867 | 29.70479 | 33195 ft | 425 kts | 135° |
| 2026-04-22 10:49 | -16.64057 | 29.74861 | 33188 ft | 426 kts | 135° |
| 2026-04-22 10:49 | -16.68255 | 29.79209 | 33193 ft | 427 kts | 139° |
| 2026-04-22 10:50 | -16.73021 | 29.82866 | 33188 ft | 427 kts | 146° |
| 2026-04-22 10:50 | -16.77956 | 29.86359 | 33196 ft | 433 kts | 146° |
| 2026-04-22 10:51 | -16.81215 | 29.88686 | 33194 ft | 438 kts | 146° |
| 2026-04-22 10:51 | -16.86238 | 29.92325 | 33182 ft | 439 kts | 145° |
| 2026-04-22 10:52 | -16.91206 | 29.95958 | 33192 ft | 437 kts | 145° |
| 2026-04-22 10:52 | -16.96179 | 29.99604 | 33233 ft | 436 kts | 145° |
| 2026-04-22 10:53 | -17.01169 | 30.03266 | 33246 ft | 437 kts | 145° |
| 2026-04-22 10:53 | -17.06125 | 30.06903 | 33248 ft | 438 kts | 145° |
| 2026-04-22 10:54 | -17.11116 | 30.10567 | 33241 ft | 438 kts | 145° |
| 2026-04-22 10:54 | -17.13621 | 30.12408 | 32776 ft | 442 kts | 145° |
| 2026-04-22 10:54 | -17.16132 | 30.14253 | 32124 ft | 441 kts | 145° |
| 2026-04-22 10:54 | -17.18654 | 30.16107 | 31435 ft | 440 kts | 145° |
| 2026-04-22 10:55 | -17.21113 | 30.17917 | 30885 ft | 435 kts | 146° |
| 2026-04-22 10:55 | -17.23613 | 30.19756 | 30306 ft | 431 kts | 146° |
| 2026-04-22 10:55 | -17.26027 | 30.21533 | 29736 ft | 427 kts | 146° |
| 2026-04-22 10:55 | -17.28447 | 30.23315 | 29141 ft | 423 kts | 146° |
| 2026-04-22 10:56 | -17.30848 | 30.25083 | 28545 ft | 418 kts | 146° |
| 2026-04-22 10:56 | -17.33217 | 30.26828 | 27950 ft | 414 kts | 146° |
| 2026-04-22 10:56 | -17.35565 | 30.28558 | 27354 ft | 410 kts | 146° |
| 2026-04-22 10:56 | -17.37889 | 30.30271 | 26768 ft | 406 kts | 146° |
| 2026-04-22 10:57 | -17.40183 | 30.31962 | 26185 ft | 402 kts | 146° |
| 2026-04-22 10:57 | -17.42458 | 30.33641 | 25601 ft | 398 kts | 146° |
| 2026-04-22 10:57 | -17.44715 | 30.35306 | 25023 ft | 394 kts | 146° |
| 2026-04-22 10:57 | -17.46919 | 30.36932 | 24458 ft | 390 kts | 146° |
| 2026-04-22 10:58 | -17.49127 | 30.38562 | 23883 ft | 386 kts | 146° |
| 2026-04-22 10:58 | -17.51310 | 30.40174 | 23316 ft | 382 kts | 146° |
| 2026-04-22 10:58 | -17.53477 | 30.41775 | 22739 ft | 378 kts | 146° |
| 2026-04-22 10:58 | -17.55614 | 30.43354 | 22180 ft | 374 kts | 146° |
| 2026-04-22 10:59 | -17.57725 | 30.44914 | 21633 ft | 370 kts | 146° |
| 2026-04-22 10:59 | -17.59821 | 30.46464 | 21065 ft | 366 kts | 146° |
| 2026-04-22 10:59 | -17.61904 | 30.48005 | 20510 ft | 363 kts | 146° |
| 2026-04-22 10:59 | -17.63951 | 30.49519 | 19960 ft | 359 kts | 146° |
| 2026-04-22 11:00 | -17.65955 | 30.51002 | 19418 ft | 355 kts | 146° |
| 2026-04-22 11:00 | -17.67968 | 30.52492 | 18870 ft | 352 kts | 145° |
| 2026-04-22 11:00 | -17.69964 | 30.53970 | 18322 ft | 348 kts | 145° |
| 2026-04-22 11:00 | -17.71935 | 30.55430 | 17784 ft | 345 kts | 145° |
| 2026-04-22 11:01 | -17.73871 | 30.56865 | 17250 ft | 341 kts | 145° |
| 2026-04-22 11:01 | -17.75802 | 30.58296 | 16712 ft | 338 kts | 145° |
| 2026-04-22 11:01 | -17.77706 | 30.59708 | 16175 ft | 334 kts | 145° |
| 2026-04-22 11:01 | -17.79596 | 30.61110 | 15656 ft | 331 kts | 145° |
| 2026-04-22 11:02 | -17.81470 | 30.62501 | 15126 ft | 328 kts | 144° |
| 2026-04-22 11:02 | -17.83329 | 30.63880 | 14599 ft | 325 kts | 144° |
| 2026-04-22 11:02 | -17.83931 | 30.64327 | 14431 ft | 324 kts | 144° |